Time;durP1;ratioP1;P1;durP2;ratioP2;P2;SDS_P1;SDS_P2;PMS_P1;PMS_P2;Temp;Humidity;BMP_temperature;BMP_pressure;BME280_temperature;BME280_humidity;BME280_pressure;Samples;Min_cycle;Max_cycle;Signal;HPM_P1;HPM_P2
2021/10/20 00:01:09;;;;;;;11.88;9.32;;;;;;;6.03;72.41;94602.63;5111465;28;20552;-43
2021/10/20 00:03:34;;;;;;;15.18;10.35;;;;;;;6.10;72.27;94593.97;5112355;28;20504;-43
2021/10/20 00:06:00;;;;;;;17.88;10.38;;;;;;;5.89;72.52;94568.69;5112729;28;20019;-45
2021/10/20 00:08:26;;;;;;;15.35;11.00;;;;;;;6.04;72.45;94595.94;5112364;28;20031;-47
2021/10/20 00:10:51;;;;;;;19.75;12.15;;;;;;;6.02;72.65;94596.41;5112195;28;20015;-44
2021/10/20 00:13:17;;;;;;;15.50;11.30;;;;;;;5.96;72.72;94590.16;5112528;28;20055;-43
2021/10/20 00:15:43;;;;;;;16.88;11.30;;;;;;;5.95;73.36;94591.41;5111006;28;20027;-42
2021/10/20 00:18:08;;;;;;;15.98;10.38;;;;;;;5.86;72.62;94594.34;5112126;28;20031;-42
2021/10/20 00:20:34;;;;;;;14.82;11.30;;;;;;;5.79;72.63;94583.81;5111925;28;20110;-45
2021/10/20 00:22:59;;;;;;;20.45;12.50;;;;;;;5.75;73.47;94588.78;5110775;28;20026;-44
2021/10/20 00:25:25;;;;;;;16.95;11.82;;;;;;;5.69;73.57;94588.00;5099713;28;20023;-45
2021/10/20 00:27:50;;;;;;;16.88;10.88;;;;;;;5.64;73.16;94579.72;5091563;28;20031;-44
2021/10/20 00:30:16;;;;;;;14.88;11.23;;;;;;;5.61;73.09;94580.72;5091766;28;20016;-44
2021/10/20 00:32:43;;;;;;;16.10;11.95;;;;;;;5.59;72.88;94583.94;5091466;28;20064;-45
2021/10/20 00:35:09;;;;;;;17.77;12.10;;;;;;;5.59;73.01;94575.72;5091467;28;20024;-46
2021/10/20 00:37:34;;;;;;;20.98;11.90;;;;;;;5.48;73.20;94570.16;5101505;28;20039;-44
2021/10/20 00:40:00;;;;;;;21.58;11.75;;;;;;;5.47;73.24;94573.41;5111560;28;20048;-46
2021/10/20 00:42:25;;;;;;;15.05;11.45;;;;;;;5.46;73.09;94574.66;5111847;28;20031;-46
2021/10/20 00:44:53;;;;;;;14.23;10.38;;;;;;;5.33;73.24;94584.00;5111425;28;20032;-45
2021/10/20 00:59:42;;;;;;;28.75;11.02;;;;;;;5.76;70.67;94579.28;5119552;27;20641;-45
2021/10/20 01:02:08;;;;;;;13.38;10.30;;;;;;;5.88;70.08;94580.16;5115964;28;20504;-45
2021/10/20 01:04:35;;;;;;;14.50;10.63;;;;;;;5.87;70.48;94581.38;5117755;27;20030;-44
2021/10/20 01:07:01;;;;;;;16.50;10.18;;;;;;;5.68;70.89;94580.25;5115624;28;20026;-43
2021/10/20 01:09:26;;;;;;;14.30;10.65;;;;;;;5.57;71.77;94583.66;5118452;28;20020;-46
2021/10/20 01:11:53;;;;;;;14.18;10.48;;;;;;;5.49;71.54;94579.91;5117528;28;20023;-45
2021/10/20 01:14:19;;;;;;;14.88;10.73;;;;;;;5.29;71.85;94567.06;5117182;27;20027;-46
2021/10/20 01:16:45;;;;;;;13.35;9.13;;;;;;;5.28;72.21;94554.59;5117595;28;20152;-48
2021/10/20 01:19:13;;;;;;;12.63;9.75;;;;;;;5.37;71.75;94576.31;5117258;28;20016;-46
2021/10/20 01:21:38;;;;;;;17.55;11.13;;;;;;;5.36;73.12;94571.34;5116746;27;20554;-46
2021/10/20 01:24:05;;;;;;;15.43;11.52;;;;;;;5.27;73.69;94566.81;5115339;28;20047;-46
2021/10/20 01:26:31;;;;;;;18.65;11.88;;;;;;;5.22;72.83;94572.22;5117101;28;20095;-45
2021/10/20 01:28:56;;;;;;;19.48;11.93;;;;;;;5.23;72.58;94565.53;5116878;27;20119;-45
2021/10/20 01:31:22;;;;;;;18.88;11.77;;;;;;;5.17;71.61;94572.94;5118192;28;20027;-46
2021/10/20 01:33:47;;;;;;;19.83;12.20;;;;;;;5.15;72.57;94578.16;5109705;28;20015;-46
2021/10/20 01:36:13;;;;;;;20.08;12.43;;;;;;;4.96;72.44;94571.53;5116419;28;20034;-46
2021/10/20 01:38:39;;;;;;;16.63;12.52;;;;;;;4.89;73.11;94570.00;5123303;28;20412;-47
2021/10/20 01:41:04;;;;;;;20.52;11.68;;;;;;;4.75;73.45;94570.09;5127716;27;20025;-47
2021/10/20 01:43:42;;;;;;;16.30;10.63;;;;;;;4.52;73.37;94569.16;5127714;27;20055;-47
2021/10/20 01:46:09;;;;;;;13.93;9.30;;;;;;;4.76;72.92;94579.81;5127642;27;20503;-46
2021/10/20 01:48:35;;;;;;;14.75;10.07;;;;;;;4.85;72.38;94571.44;5127459;27;20106;-43
2021/10/20 01:51:00;;;;;;;12.73;8.90;;;;;;;4.83;72.05;94571.19;5126237;27;20100;-43
2021/10/20 01:53:26;;;;;;;18.52;10.05;;;;;;;4.77;71.96;94573.84;5127469;27;20035;-42
2021/10/20 01:55:51;;;;;;;14.65;10.48;;;;;;;4.70;72.23;94560.59;5127712;27;20019;-43
2021/10/20 01:58:18;;;;;;;15.07;10.45;;;;;;;4.61;72.64;94572.47;5106136;27;20581;-42
2021/10/20 02:00:43;;;;;;;11.35;8.98;;;;;;;4.42;72.62;94538.47;5092830;28;20105;-45
2021/10/20 02:03:09;;;;;;;12.90;8.82;;;;;;;4.54;72.17;94564.69;5093518;28;20024;-46
2021/10/20 02:05:34;;;;;;;11.98;9.25;;;;;;;4.52;72.95;94569.91;5093483;28;20048;-43
2021/10/20 02:07:59;;;;;;;12.85;8.82;;;;;;;4.59;73.56;94566.72;5093030;28;20484;-45
2021/10/20 02:10:25;;;;;;;20.15;12.35;;;;;;;4.56;73.21;94554.03;5093333;28;20028;-45
2021/10/20 02:12:50;;;;;;;17.05;11.00;;;;;;;4.44;72.32;94565.34;5093342;28;20081;-45
2021/10/20 02:15:16;;;;;;;15.65;10.60;;;;;;;4.41;72.10;94564.31;5092941;28;20020;-44
2021/10/20 02:17:41;;;;;;;20.65;11.30;;;;;;;4.39;73.02;94566.03;5092930;28;20039;-46
2021/10/20 02:20:11;;;;;;;16.70;11.52;;;;;;;4.29;72.79;94570.88;5093191;28;20035;-46
2021/10/20 02:22:37;;;;;;;22.00;11.40;;;;;;;4.20;72.80;94575.78;5093074;28;20416;-45
2021/10/20 02:25:05;;;;;;;13.77;10.40;;;;;;;4.28;72.08;94583.06;5092796;28;20039;-45
2021/10/20 02:27:30;;;;;;;14.60;10.20;;;;;;;4.19;73.11;94575.00;5092977;28;20024;-44
2021/10/20 02:29:56;;;;;;;16.17;9.70;;;;;;;4.16;71.93;94573.22;5092517;28;20085;-45
2021/10/20 02:32:21;;;;;;;18.13;9.73;;;;;;;4.14;72.11;94572.19;5092748;28;20028;-46
2021/10/20 02:34:47;;;;;;;13.43;8.90;;;;;;;4.07;72.58;94572.63;5092558;28;20024;-47
2021/10/20 02:37:14;;;;;;;16.45;10.40;;;;;;;4.07;72.33;94559.69;5092864;28;20043;-45
2021/10/20 02:39:39;;;;;;;15.48;10.60;;;;;;;3.98;71.85;94540.75;5092856;28;20032;-44
2021/10/20 02:42:05;;;;;;;19.08;11.77;;;;;;;4.10;72.67;94568.94;5092065;28;20412;-45
2021/10/20 02:44:30;;;;;;;16.17;11.52;;;;;;;4.02;72.07;94560.41;5091786;28;20024;-46
2021/10/20 02:46:56;;;;;;;19.10;11.75;;;;;;;4.00;72.54;94554.66;5092574;28;20028;-46
2021/10/20 02:49:21;;;;;;;14.68;11.10;;;;;;;3.98;72.69;94562.59;5092697;28;20576;-45
2021/10/20 02:51:47;;;;;;;13.48;8.82;;;;;;;3.94;72.36;94550.38;5092232;28;20035;-45
2021/10/20 02:54:12;;;;;;;16.48;10.27;;;;;;;4.03;72.70;94559.16;5092184;28;20032;-45
2021/10/20 02:56:38;;;;;;;17.17;9.70;;;;;;;4.04;72.34;94559.91;5092179;28;20038;-46
2021/10/20 02:59:03;;;;;;;11.27;9.05;;;;;;;3.97;71.90;94549.41;5092033;28;20044;-46
2021/10/20 03:01:29;;;;;;;18.63;11.55;;;;;;;3.89;71.62;94556.50;5092094;28;20455;-47
2021/10/20 03:03:54;;;;;;;14.90;10.52;;;;;;;3.79;72.00;94555.88;5092347;28;20032;-46
2021/10/20 03:06:20;;;;;;;11.40;7.95;;;;;;;3.71;72.31;94560.25;5092315;28;20461;-45
2021/10/20 03:08:45;;;;;;;12.32;8.52;;;;;;;3.36;72.50;94548.63;5091888;28;20038;-46
2021/10/20 03:11:11;;;;;;;9.68;6.95;;;;;;;3.24;73.15;94555.91;5091241;28;20080;-46
2021/10/20 03:13:36;;;;;;;10.23;7.50;;;;;;;3.35;72.72;94550.63;5092156;28;20513;-47
2021/10/20 03:16:02;;;;;;;13.05;8.02;;;;;;;3.52;72.24;94551.59;5092078;28;20028;-48
2021/10/20 03:18:27;;;;;;;11.27;8.32;;;;;;;3.66;71.34;94553.50;5091858;28;20102;-47
2021/10/20 03:20:53;;;;;;;10.00;7.68;;;;;;;3.54;71.43;94554.59;5091754;28;20024;-45
2021/10/20 03:23:18;;;;;;;14.63;9.07;;;;;;;3.48;72.11;94553.78;5091919;28;20081;-46
2021/10/20 03:25:44;;;;;;;13.80;10.38;;;;;;;3.44;73.07;94553.22;5091949;28;20035;-48
2021/10/20 03:28:09;;;;;;;16.23;11.63;;;;;;;3.38;71.94;94549.66;5091764;28;20020;-47
2021/10/20 03:30:35;;;;;;;15.55;10.95;;;;;;;3.34;72.77;94551.06;5091545;28;20132;-47
2021/10/20 03:33:00;;;;;;;18.48;12.20;;;;;;;3.32;72.59;94553.53;5091875;28;20032;-46
2021/10/20 03:35:26;;;;;;;23.30;14.32;;;;;;;3.29;72.45;94551.75;5090285;28;20055;-46
2021/10/20 03:37:51;;;;;;;45.78;22.40;;;;;;;3.26;73.48;94549.97;5091743;28;20039;-46
2021/10/20 03:40:17;;;;;;;47.75;20.33;;;;;;;3.29;74.39;94549.75;5091599;28;20500;-45
2021/10/20 03:42:43;;;;;;;38.92;18.85;;;;;;;3.25;73.94;94545.75;5091597;28;20393;-46
2021/10/20 03:45:09;;;;;;;30.48;17.92;;;;;;;3.22;74.22;94552.16;5091544;28;20032;-46
2021/10/20 03:47:35;;;;;;;42.88;21.92;;;;;;;3.21;74.47;94547.91;5091447;28;20085;-46
2021/10/20 03:50:00;;;;;;;31.35;19.73;;;;;;;3.21;74.53;94553.38;5091211;28;20036;-47
2021/10/20 03:52:26;;;;;;;38.45;20.30;;;;;;;3.24;74.36;94555.16;5091028;28;20032;-46
2021/10/20 03:54:51;;;;;;;48.80;21.30;;;;;;;3.18;74.70;94555.09;5091334;28;20035;-44
2021/10/20 03:57:17;;;;;;;34.88;19.90;;;;;;;3.22;74.56;94552.16;5090910;28;20035;-44
2021/10/20 03:59:43;;;;;;;35.20;17.30;;;;;;;3.13;74.02;94544.84;5090889;28;20520;-44
2021/10/20 04:02:09;;;;;;;33.53;17.45;;;;;;;3.14;73.85;94551.03;5091252;28;20036;-44
2021/10/20 04:04:35;;;;;;;47.95;26.33;;;;;;;3.17;73.80;94550.09;5091193;28;20027;-43
2021/10/20 04:07:01;;;;;;;40.33;21.73;;;;;;;3.11;74.05;94551.97;5090905;28;20759;-44
2021/10/20 04:09:26;;;;;;;39.35;19.65;;;;;;;3.10;74.90;94550.50;5090713;28;20405;-44
2021/10/20 04:11:52;;;;;;;35.10;20.70;;;;;;;3.11;75.24;94547.28;5090784;28;20527;-45
2021/10/20 04:14:17;;;;;;;33.28;20.17;;;;;;;2.99;75.76;94551.06;5090780;28;20047;-45
2021/10/20 04:16:43;;;;;;;35.15;14.02;;;;;;;3.00;75.50;94552.56;5090263;28;20424;-44
2021/10/20 04:19:08;;;;;;;23.60;14.18;;;;;;;3.08;75.38;94546.25;5090607;28;20027;-45
2021/10/20 04:21:34;;;;;;;24.23;13.30;;;;;;;3.10;74.57;94550.50;5090286;28;20054;-45
2021/10/20 04:23:59;;;;;;;41.67;14.82;;;;;;;3.09;75.34;94552.47;5089998;28;20031;-43
2021/10/20 04:26:24;;;;;;;19.60;10.63;;;;;;;3.00;75.25;94547.13;5088887;28;20058;-44
2021/10/20 04:28:50;;;;;;;21.88;12.65;;;;;;;2.94;74.68;94549.78;5090081;28;20059;-45
2021/10/20 04:31:15;;;;;;;23.42;12.95;;;;;;;2.92;74.60;94554.19;5090167;28;20036;-43
2021/10/20 04:33:41;;;;;;;25.60;9.93;;;;;;;2.94;74.71;94549.78;5090168;28;20028;-44
2021/10/20 04:36:06;;;;;;;14.52;10.00;;;;;;;2.92;74.65;94554.91;5090403;28;20020;-45
2021/10/20 04:38:32;;;;;;;29.30;14.43;;;;;;;3.00;75.24;94558.78;5090209;28;20028;-45
2021/10/20 04:40:57;;;;;;;41.65;21.33;;;;;;;2.97;75.03;94548.81;5089777;28;20039;-45
2021/10/20 04:43:23;;;;;;;36.40;18.55;;;;;;;3.02;74.90;94558.31;5089835;28;20448;-45
2021/10/20 04:45:49;;;;;;;31.02;18.20;;;;;;;3.05;75.70;94551.91;5090065;28;20546;-44
2021/10/20 04:48:14;;;;;;;29.55;16.25;;;;;;;3.01;75.66;94554.09;5090121;28;20024;-43
2021/10/20 04:50:39;;;;;;;44.03;24.15;;;;;;;3.01;76.12;94554.81;5090208;28;20047;-44
2021/10/20 04:53:05;;;;;;;34.40;17.45;;;;;;;2.83;75.53;94552.31;5090105;28;20408;-44
2021/10/20 04:55:31;;;;;;;19.75;13.60;;;;;;;2.85;76.05;94557.28;5090184;28;20102;-46
2021/10/20 04:57:56;;;;;;;33.92;18.83;;;;;;;2.73;75.48;94539.25;5089652;28;20040;-46
2021/10/20 05:00:23;;;;;;;29.65;16.02;;;;;;;3.03;74.88;94549.63;5089685;28;20509;-45
2021/10/20 05:02:49;;;;;;;24.98;14.25;;;;;;;3.08;74.35;94557.16;5089878;28;20055;-44
2021/10/20 05:05:14;;;;;;;26.90;15.23;;;;;;;3.06;74.37;94562.34;5089699;28;20114;-44
2021/10/20 05:07:53;;;;;;;38.28;17.55;;;;;;;3.06;75.13;94556.13;5089755;28;20039;-45
2021/10/20 05:10:20;;;;;;;30.88;14.75;;;;;;;3.15;75.17;94555.25;5090022;28;20028;-47
2021/10/20 05:12:46;;;;;;;35.05;17.88;;;;;;;3.21;75.64;94559.56;5089666;28;20515;-46
2021/10/20 05:15:12;;;;;;;89.13;27.23;;;;;;;3.11;74.65;94543.78;5089441;28;20032;-45
2021/10/20 05:17:42;;;;;;;45.53;21.85;;;;;;;3.30;75.23;94558.72;5089229;28;20099;-46
2021/10/20 05:20:09;;;;;;;52.38;17.30;;;;;;;3.27;75.49;94554.22;5089755;28;20173;-45
2021/10/20 05:22:35;;;;;;;49.05;18.83;;;;;;;3.42;76.10;94565.84;5089583;28;20516;-45
2021/10/20 05:25:01;;;;;;;41.65;16.92;;;;;;;3.53;75.53;94558.53;5089922;28;20024;-45
2021/10/20 05:27:27;;;;;;;49.40;18.75;;;;;;;3.57;75.05;94555.63;5089856;28;20450;-46
2021/10/20 05:29:52;;;;;;;58.53;23.67;;;;;;;3.55;75.33;94564.28;5089973;28;20032;-46
2021/10/20 05:32:18;;;;;;;68.65;27.15;;;;;;;3.56;74.77;94567.75;5089528;28;20024;-46
2021/10/20 05:34:43;;;;;;;129.00;47.38;;;;;;;3.69;75.76;94568.94;5091405;28;20028;-44
2021/10/20 05:37:09;;;;;;;74.25;28.98;;;;;;;3.76;75.93;94568.53;5093366;28;20027;-47
2021/10/20 05:39:34;;;;;;;39.67;17.83;;;;;;;3.75;75.32;94577.19;5093160;28;20077;-46
2021/10/20 05:41:59;;;;;;;61.75;18.85;;;;;;;3.62;74.93;94574.03;5093321;28;20085;-45
2021/10/20 05:44:25;;;;;;;34.78;17.48;;;;;;;3.60;75.61;94576.50;5093209;28;20056;-46
2021/10/20 05:46:50;;;;;;;56.67;20.23;;;;;;;3.62;75.21;94579.50;5093361;28;20024;-45
2021/10/20 05:49:16;;;;;;;37.30;18.63;;;;;;;3.62;74.13;94574.81;5091549;28;20501;-46
2021/10/20 05:51:42;;;;;;;42.25;19.52;;;;;;;3.67;74.77;94576.88;5093430;28;20071;-45
2021/10/20 05:54:07;;;;;;;32.17;17.75;;;;;;;3.70;75.05;94584.09;5093315;28;20103;-45
2021/10/20 05:56:33;;;;;;;35.30;19.27;;;;;;;3.78;75.65;94578.97;5093127;28;20043;-46
2021/10/20 05:58:58;;;;;;;37.35;18.50;;;;;;;3.90;75.18;94583.34;5092729;28;20047;-43
2021/10/20 06:01:24;;;;;;;41.25;24.15;;;;;;;3.85;75.26;94578.59;5093075;28;20028;-44
2021/10/20 06:03:50;;;;;;;46.53;23.52;;;;;;;3.95;74.30;94585.41;5092734;28;20024;-45
2021/10/20 06:06:15;;;;;;;41.22;24.85;;;;;;;4.09;74.15;94581.88;5092183;28;20028;-44
2021/10/20 06:08:41;;;;;;;35.58;19.60;;;;;;;4.23;73.44;94589.22;5093020;28;20562;-44
2021/10/20 06:11:06;;;;;;;35.10;16.88;;;;;;;4.28;74.14;94590.50;5093066;28;20508;-44
2021/10/20 06:13:32;;;;;;;23.80;14.73;;;;;;;4.27;73.68;94589.75;5092788;28;20527;-44
2021/10/20 06:15:57;;;;;;;30.73;17.05;;;;;;;4.46;73.62;94582.75;5092637;28;20036;-46
2021/10/20 06:18:23;;;;;;;26.50;13.98;;;;;;;4.59;72.70;94585.88;5092690;28;20063;-47
2021/10/20 06:20:48;;;;;;;26.00;15.57;;;;;;;4.73;72.98;94588.97;5092498;28;20024;-45
2021/10/20 06:23:14;;;;;;;22.02;14.20;;;;;;;4.61;72.79;94569.00;5092695;28;20032;-47
2021/10/20 06:25:39;;;;;;;28.15;17.42;;;;;;;4.80;72.64;94592.03;5092510;28;20020;-46
2021/10/20 06:28:05;;;;;;;19.60;13.10;;;;;;;4.83;72.28;94598.53;5092772;28;20020;-45
2021/10/20 06:30:31;;;;;;;22.58;12.18;;;;;;;4.90;72.18;94596.09;5092762;28;20028;-46
2021/10/20 06:32:56;;;;;;;16.88;11.48;;;;;;;5.00;71.29;94599.44;5092603;28;20020;-46
2021/10/20 06:35:22;;;;;;;19.10;14.10;;;;;;;4.92;71.68;94599.09;5092587;28;20561;-46
2021/10/20 06:37:50;;;;;;;20.75;14.05;;;;;;;5.14;72.18;94598.53;5092117;28;20020;-46
2021/10/20 06:40:16;;;;;;;24.80;15.07;;;;;;;5.28;72.56;94603.16;5092417;28;20469;-46
2021/10/20 06:42:41;;;;;;;23.67;16.95;;;;;;;5.43;72.05;94611.22;5092418;28;20062;-46
2021/10/20 06:45:07;;;;;;;27.65;18.38;;;;;;;5.58;72.59;94606.34;5092167;28;20035;-43
2021/10/20 06:47:33;;;;;;;19.08;14.30;;;;;;;5.93;71.86;94610.31;5091935;28;20447;-45
2021/10/20 06:49:58;;;;;;;12.02;9.65;;;;;;;6.25;70.98;94607.47;5091952;28;20043;-46
2021/10/20 06:52:24;;;;;;;18.10;13.48;;;;;;;6.54;69.67;94599.59;5074692;28;20060;-44
2021/10/20 06:54:49;;;;;;;54.25;27.38;;;;;;;7.08;69.33;94607.69;5068972;28;20028;-43
2021/10/20 06:57:15;;;;;;;32.28;19.00;;;;;;;7.47;68.28;94611.22;5080913;28;20040;-43
2021/10/20 06:59:41;;;;;;;20.95;15.02;;;;;;;7.84;66.86;94610.91;5089758;28;20036;-46
2021/10/20 07:02:06;;;;;;;17.73;13.35;;;;;;;8.23;65.19;94606.03;5090130;28;20028;-45
2021/10/20 07:17:10;;;;;;;14.32;12.50;;;;;;;12.94;51.52;94587.94;5126164;27;20619;-44
2021/10/20 07:19:39;;;;;;;12.98;11.57;;;;;;;13.54;49.96;94584.31;5126311;27;20479;-43
2021/10/20 07:22:07;;;;;;;;;;;;;;;13.87;50.23;94589.06;5126308;27;20023;-43
2021/10/20 07:24:33;;;;;;;15.10;11.80;;;;;;;14.53;48.01;94588.63;5104853;28;20309;-43
2021/10/20 07:26:59;;;;;;;13.43;10.77;;;;;;;14.62;49.08;94588.13;5121041;28;20027;-43
2021/10/20 07:29:24;;;;;;;11.23;10.02;;;;;;;14.93;48.75;94593.28;5105275;28;20027;-44
2021/10/20 07:31:50;;;;;;;16.73;9.80;;;;;;;15.26;48.06;94588.75;5108881;28;20028;-43
2021/10/20 07:34:15;;;;;;;12.52;10.85;;;;;;;15.19;48.02;94584.66;5111718;27;20028;-44
2021/10/20 07:36:42;;;;;;;16.80;12.43;;;;;;;15.35;48.17;94571.53;5125904;28;20026;-43
2021/10/20 07:39:07;;;;;;;19.00;13.93;;;;;;;16.30;46.32;94581.06;5112984;27;20024;-41
2021/10/20 07:41:33;;;;;;;16.23;12.05;;;;;;;16.75;44.00;94574.69;5105440;28;20035;-42
2021/10/20 07:43:59;;;;;;;17.50;13.05;;;;;;;16.31;45.41;94567.84;5105424;28;20024;-43
2021/10/20 07:46:24;;;;;;;27.42;20.60;;;;;;;16.46;45.78;94576.94;5123869;28;20453;-44
2021/10/20 07:48:50;;;;;;;25.55;18.75;;;;;;;16.74;44.87;94580.84;5115006;27;20031;-44
2021/10/20 07:51:16;;;;;;;19.50;16.00;;;;;;;17.01;44.35;94577.00;5110921;28;20019;-43
2021/10/20 07:53:42;;;;;;;13.43;10.43;;;;;;;16.87;44.95;94580.59;5115610;27;20031;-44
2021/10/20 07:56:07;;;;;;;14.25;11.18;;;;;;;17.69;44.50;94573.88;5123137;27;20068;-44
2021/10/20 07:58:35;;;;;;;10.65;9.52;;;;;;;18.08;42.70;94570.22;5115508;28;20059;-43
2021/10/20 08:01:00;;;;;;;14.68;11.00;;;;;;;18.81;40.84;94576.28;5115821;28;20504;-43
2021/10/20 08:03:26;;;;;;;13.48;10.80;;;;;;;19.73;39.52;94573.84;5112090;27;20015;-45
2021/10/20 08:05:51;;;;;;;13.15;11.10;;;;;;;19.65;39.03;94563.47;5114584;28;20019;-43
2021/10/20 08:08:17;;;;;;;40.58;24.83;;;;;;;19.90;38.42;94568.16;5119489;27;20066;-44
2021/10/20 08:10:42;;;;;;;19.75;15.88;;;;;;;21.14;36.42;94569.19;5117035;27;20031;-41
2021/10/20 08:13:08;;;;;;;19.35;14.45;;;;;;;21.55;35.02;94566.50;5117078;28;20080;-43
2021/10/20 08:15:34;;;;;;;13.98;11.43;;;;;;;21.72;34.12;94571.91;5116109;27;20549;-45
2021/10/20 08:18:03;;;;;;;147.98;94.47;;;;;;;21.88;34.52;94564.63;5103843;28;20027;-44
2021/10/20 08:20:31;;;;;;;17.38;12.68;;;;;;;23.04;31.67;94566.22;5101024;28;20091;-46
2021/10/20 08:22:57;;;;;;;11.10;10.00;;;;;;;24.25;30.35;94561.94;5101530;28;20019;-44
2021/10/20 08:25:22;;;;;;;11.75;10.52;;;;;;;24.42;30.00;94558.75;5095447;28;20529;-45
2021/10/20 08:27:48;;;;;;;19.60;15.52;;;;;;;24.67;29.83;94561.66;5100989;28;20035;-43
2021/10/20 08:30:17;;;;;;;33.17;23.83;;;;;;;24.76;30.28;94558.72;5106401;28;20104;-44
2021/10/20 08:32:45;;;;;;;11.88;10.18;;;;;;;24.88;29.78;94558.72;5099142;28;20036;-44
2021/10/20 08:35:15;;;;;;;19.45;14.98;;;;;;;25.29;29.55;94553.28;5099011;28;20030;-45
2021/10/20 08:37:41;;;;;;;11.15;9.85;;;;;;;26.12;27.27;94553.00;5099163;28;20031;-42
2021/10/20 08:40:08;;;;;;;10.45;9.30;;;;;;;25.58;27.56;94547.88;5099864;28;20042;-43
2021/10/20 08:42:35;;;;;;;18.35;9.02;;;;;;;25.39;26.84;94539.72;5100567;28;20111;-44
2021/10/20 08:45:00;;;;;;;7.38;6.65;;;;;;;24.85;27.62;94548.63;5097709;28;20097;-44
2021/10/20 08:47:26;;;;;;;7.65;6.43;;;;;;;25.03;26.15;94561.00;5099754;28;20417;-43
2021/10/20 08:49:51;;;;;;;13.82;7.82;;;;;;;24.63;27.87;94558.59;5099002;28;20023;-44
2021/10/20 08:52:17;;;;;;;6.53;5.80;;;;;;;23.60;27.24;94552.25;5096734;28;20026;-44
2021/10/20 08:54:43;;;;;;;7.13;5.85;;;;;;;24.13;27.77;94552.75;5097147;28;20020;-43
2021/10/20 08:57:08;;;;;;;6.25;5.65;;;;;;;24.30;28.27;94549.56;5099805;28;20454;-46
2021/10/20 08:59:35;;;;;;;6.68;5.97;;;;;;;23.68;28.17;94540.75;5098369;28;20081;-45
2021/10/20 09:02:04;;;;;;;6.85;5.45;;;;;;;23.86;27.89;94539.06;5099877;28;20502;-44
2021/10/20 09:04:32;;;;;;;5.95;5.45;;;;;;;24.04;28.10;94535.28;5100349;28;20122;-43
2021/10/20 09:07:01;;;;;;;6.95;6.25;;;;;;;24.33;29.05;94540.56;5100859;28;20027;-43
2021/10/20 09:09:33;;;;;;;6.65;5.82;;;;;;;24.97;27.04;94548.63;5101171;28;20024;-44
2021/10/20 09:11:59;;;;;;;7.95;5.68;;;;;;;24.41;27.23;94537.50;5099954;28;20515;-45
2021/10/20 09:14:24;;;;;;;6.00;5.40;;;;;;;25.16;25.64;94537.75;5107975;28;20061;-44
2021/10/20 09:16:50;;;;;;;5.90;5.30;;;;;;;25.03;25.84;94535.56;5112203;28;20547;-45
2021/10/20 09:19:23;;;;;;;6.38;5.50;;;;;;;25.53;24.79;94532.06;5112447;28;20098;-44
2021/10/20 09:21:54;;;;;;;7.70;5.30;;;;;;;26.02;24.78;94533.34;5112878;28;20416;-45
2021/10/20 09:24:21;;;;;;;9.18;6.40;;;;;;;24.83;26.61;94529.50;5112472;28;20042;-44
2021/10/20 09:26:50;;;;;;;8.40;5.95;;;;;;;24.35;26.49;94528.66;5112726;28;20040;-43
2021/10/20 09:29:27;;;;;;;6.20;5.65;;;;;;;23.90;27.68;94525.94;5111585;27;20113;-44
2021/10/20 09:31:53;;;;;;;9.30;7.35;;;;;;;24.59;27.56;94518.81;5112595;28;20412;-44
2021/10/20 09:34:19;;;;;;;6.43;5.63;;;;;;;25.66;25.29;94520.06;5111025;28;20030;-43
2021/10/20 09:36:45;;;;;;;6.00;5.40;;;;;;;26.52;24.91;94520.41;5108430;28;20095;-47
2021/10/20 09:39:11;;;;;;;6.35;5.32;;;;;;;27.23;23.28;94516.22;5099810;28;20019;-42
2021/10/20 09:41:37;;;;;;;11.63;6.38;;;;;;;27.44;23.88;94521.56;5099342;27;20074;-46
2021/10/20 09:44:07;;;;;;;6.65;5.03;;;;;;;27.45;22.52;94501.06;5099039;28;20485;-45
2021/10/20 09:46:35;;;;;;;6.10;5.50;;;;;;;26.52;22.79;94520.41;5112190;28;20442;-46
2021/10/20 09:49:03;;;;;;;7.07;5.57;;;;;;;26.71;23.21;94517.88;5112186;28;20110;-44
2021/10/20 09:51:37;;;;;;;5.55;5.05;;;;;;;25.97;24.43;94525.25;5112268;28;20429;-46
2021/10/20 09:54:02;;;;;;;7.50;6.45;;;;;;;25.68;25.95;94514.53;5112123;28;20019;-46
2021/10/20 09:56:32;;;;;;;6.57;5.93;;;;;;;26.39;24.88;94515.47;5112115;28;20096;-46
2021/10/20 09:58:58;;;;;;;6.25;5.65;;;;;;;26.87;23.37;94510.25;5112014;28;20103;-45
2021/10/20 10:01:25;;;;;;;7.32;5.63;;;;;;;26.86;23.34;94505.19;5111889;28;20049;-44
2021/10/20 10:03:52;;;;;;;6.97;5.35;;;;;;;26.82;22.38;94505.72;5096302;28;20059;-45
2021/10/20 10:06:18;;;;;;;5.10;4.63;;;;;;;25.88;24.44;94504.28;5095780;28;20030;-45
2021/10/20 10:08:44;;;;;;;7.05;6.40;;;;;;;23.99;26.66;94502.53;5110291;28;20658;-45
2021/10/20 10:11:10;;;;;;;6.07;5.53;;;;;;;23.10;27.31;94498.28;5109225;27;20027;-45
2021/10/20 10:13:49;;;;;;;9.25;6.28;;;;;;;22.90;29.82;94494.91;5094929;28;20407;-44
2021/10/20 10:16:15;;;;;;;;;;;;;;;23.99;26.83;94498.97;5110693;28;20068;-46
2021/10/20 10:18:41;;;;;;;6.70;6.10;;;;;;;23.83;28.89;94476.16;5099784;28;20035;-44
2021/10/20 10:21:36;;;;;;;6.57;5.90;;;;;;;24.24;28.04;94489.91;5091242;28;20408;-45
2021/10/20 10:24:05;;;;;;;5.88;5.28;;;;;;;25.80;24.61;94480.47;5090825;28;20016;-44
2021/10/20 10:26:41;;;;;;;8.00;5.88;;;;;;;26.74;23.01;94482.66;5089612;28;20103;-44
2021/10/20 10:29:12;;;;;;;7.35;5.18;;;;;;;26.73;22.69;94481.19;5089582;28;20528;-44
2021/10/20 10:31:41;;;;;;;8.40;5.00;;;;;;;26.62;23.39;94470.66;5091142;28;20024;-43
2021/10/20 10:34:17;;;;;;;6.13;5.38;;;;;;;26.68;23.45;94468.13;5098074;28;20055;-43
2021/10/20 10:36:58;;;;;;;7.50;5.90;;;;;;;27.13;23.64;94471.13;5102846;28;20047;-44
2021/10/20 10:39:24;;;;;;;5.93;5.18;;;;;;;27.65;21.94;94461.56;5098497;28;20035;-44
2021/10/20 10:53:55;;;;;;;7.97;5.65;;;;;;;22.90;28.23;94455.47;5054365;28;21837;-45
2021/10/20 10:56:21;;;;;;;6.32;5.72;;;;;;;23.06;29.03;94459.34;5035245;28;20069;-44
2021/10/20 10:58:54;;;;;;;6.13;5.60;;;;;;;23.25;27.70;94436.59;5030942;28;20074;-45
2021/10/20 11:01:45;;;;;;;5.35;4.85;;;;;;;24.49;26.27;94442.75;5042148;28;20544;-41
2021/10/20 11:04:25;;;;;;;6.05;5.45;;;;;;;25.17;24.82;94439.53;5026210;28;20037;-42
2021/10/20 11:06:53;;;;;;;6.22;5.63;;;;;;;24.00;26.59;94438.38;5041608;28;20108;-42
2021/10/20 11:09:22;;;;;;;5.10;4.60;;;;;;;23.13;27.65;94435.09;5043966;28;20409;-43
2021/10/20 11:11:53;;;;;;;8.23;5.68;;;;;;;22.83;27.83;94433.13;5043658;28;20017;-42
2021/10/20 11:14:24;;;;;;;6.72;5.90;;;;;;;23.28;28.66;94423.38;5044071;28;20055;-41
2021/10/20 11:16:56;;;;;;;5.25;4.75;;;;;;;24.26;26.23;94425.84;5043535;28;20017;-41
2021/10/20 11:19:22;;;;;;;6.03;5.35;;;;;;;24.38;26.29;94426.56;5043662;28;20558;-42
2021/10/20 11:21:48;;;;;;;6.20;5.57;;;;;;;24.09;26.23;94403.66;5043415;28;20009;-41
2021/10/20 11:24:15;;;;;;;6.40;5.53;;;;;;;24.18;25.80;94419.00;5043602;28;20082;-41
2021/10/20 11:26:40;;;;;;;6.68;5.53;;;;;;;24.08;26.81;94427.59;5043856;28;20374;-41
2021/10/20 11:29:09;;;;;;;5.68;5.18;;;;;;;24.09;26.28;94409.31;5043431;28;20070;-43
2021/10/20 11:31:43;;;;;;;6.57;5.85;;;;;;;24.66;27.27;94410.50;5043450;28;20028;-42
2021/10/20 11:34:17;;;;;;;6.57;5.85;;;;;;;24.17;27.17;94415.44;5042107;28;20119;-41
2021/10/20 11:36:44;;;;;;;5.93;4.88;;;;;;;24.08;26.33;94410.69;5043438;28;20097;-41
2021/10/20 11:39:10;;;;;;;7.63;5.45;;;;;;;23.97;26.35;94409.28;5043537;28;20100;-41
2021/10/20 11:41:38;;;;;;;6.43;5.40;;;;;;;24.19;26.42;94403.53;5043200;28;20537;-41
2021/10/20 11:44:04;;;;;;;8.88;5.65;;;;;;;22.27;28.19;94402.78;5043250;28;20033;-42
2021/10/20 11:46:33;;;;;;;7.90;5.60;;;;;;;22.43;29.98;94401.03;5043159;28;20098;-41
2021/10/20 11:49:00;;;;;;;;;;;;;;;22.68;30.29;94392.09;5043691;28;20100;-44
2021/10/20 11:51:25;;;;;;;4.90;4.50;;;;;;;22.91;28.01;94368.91;5042680;28;20362;-45
2021/10/20 11:53:51;;;;;;;6.57;5.65;;;;;;;23.10;27.54;94388.41;5020561;28;20037;-42
2021/10/20 11:56:16;;;;;;;6.38;5.78;;;;;;;23.30;28.65;94387.56;5010354;28;20117;-42
2021/10/20 11:58:43;;;;;;;6.85;5.28;;;;;;;23.46;27.99;94387.13;5010457;28;20032;-42
2021/10/20 12:01:08;;;;;;;7.05;5.90;;;;;;;23.00;27.12;94368.06;5010196;28;20029;-42